Time;durP1;ratioP1;P1;durP2;ratioP2;P2;SDS_P1;SDS_P2;PMS_P1;PMS_P2;Temp;Humidity;BMP_temperature;BMP_pressure;BME280_temperature;BME280_humidity;BME280_pressure;Samples;Min_cycle;Max_cycle;Signal;HPM_P1;HPM_P2
2023/04/05 00:00:45;;;;;;;14.53;6.10;;;;;;;;;;10586079;27;20034;-77
2023/04/05 00:05:48;;;;;;;18.20;9.00;;;;;;;;;;10606781;27;20031;-77
2023/04/05 00:10:50;;;;;;;20.07;9.77;;;;;;;;;;10585359;27;20038;-77
2023/04/05 00:15:51;;;;;;;19.70;9.53;;;;;;;;;;10595547;27;20039;-77
2023/04/05 00:20:52;;;;;;;24.20;10.67;;;;;;;;;;10613346;27;20523;-77
2023/04/05 00:25:53;;;;;;;30.63;12.20;;;;;;;;;;10611919;27;20027;-77
2023/04/05 00:30:54;;;;;;;36.67;14.80;;;;;;;;;;10575381;27;20126;-77
2023/04/05 00:35:55;;;;;;;45.97;17.23;;;;;;;;;;10528056;28;20028;-77
2023/04/05 00:40:56;;;;;;;48.63;19.07;;;;;;;;;;10544017;28;20060;-76
2023/04/05 00:45:57;;;;;;;49.00;21.27;;;;;;;;;;10548696;28;20039;-77
2023/04/05 00:50:58;;;;;;;53.13;23.10;;;;;;;;;;10536509;28;20053;-77
2023/04/05 00:56:00;;;;;;;53.47;23.70;;;;;;;;;;10568934;28;20038;-77
2023/04/05 01:01:12;;;;;;;58.80;23.20;;;;;;;;;;10551733;28;20046;-76
2023/04/05 01:06:22;;;;;;;53.40;21.77;;;;;;;;;;10569339;28;20073;-77
2023/04/05 01:11:25;;;;;;;55.83;23.07;;;;;;;;;;10569493;28;20050;-77
2023/04/05 01:16:26;;;;;;;45.50;20.17;;;;;;;;;;10563154;28;20035;-77
2023/04/05 01:21:33;;;;;;;48.70;20.83;;;;;;;;;;10569824;28;20158;-78
2023/04/05 01:26:46;;;;;;;44.60;21.20;;;;;;;;;;10570227;28;20032;-76
2023/04/05 01:31:57;;;;;;;49.17;22.43;;;;;;;;;;10544299;28;20713;-77
2023/04/05 01:37:02;;;;;;;49.60;22.17;;;;;;;;;;10527444;28;20080;-76
2023/04/05 01:42:04;;;;;;;41.47;18.63;;;;;;;;;;10541495;28;20060;-77
2023/04/05 01:47:05;;;;;;;50.00;23.60;;;;;;;;;;10539138;28;20036;-77
2023/04/05 01:52:06;;;;;;;42.03;19.90;;;;;;;;;;10557532;28;20028;-78
2023/04/05 01:57:07;;;;;;;46.13;19.97;;;;;;;;;;10604331;28;20598;-77
2023/04/05 02:02:08;;;;;;;43.40;20.87;;;;;;;;;;10600056;28;20043;-77
2023/04/05 02:07:09;;;;;;;45.40;20.00;;;;;;;;;;10583102;27;20023;-77
2023/04/05 02:12:10;;;;;;;42.27;21.20;;;;;;;;;;10605678;27;20477;-77
2023/04/05 02:17:11;;;;;;;40.43;18.83;;;;;;;;;;10588662;27;20023;-76
2023/04/05 02:22:12;;;;;;;45.10;20.83;;;;;;;;;;10588108;27;20039;-77
2023/04/05 02:27:14;;;;;;;51.63;23.27;;;;;;;;;;10592263;27;20035;-77
2023/04/05 02:32:15;;;;;;;53.13;23.17;;;;;;;;;;10587043;27;20039;-77
2023/04/05 02:37:16;;;;;;;56.93;26.03;;;;;;;;;;10597554;27;20043;-77
2023/04/05 02:42:17;;;;;;;61.30;27.77;;;;;;;;;;10617134;27;20047;-77
2023/04/05 02:47:20;;;;;;;45.70;21.60;;;;;;;;;;10598341;27;20470;-77
2023/04/05 02:52:21;;;;;;;43.43;18.17;;;;;;;;;;10579849;27;20961;-77
2023/04/05 02:57:22;;;;;;;44.23;19.00;;;;;;;;;;10616828;27;20499;-77
2023/04/05 03:02:23;;;;;;;43.20;20.83;;;;;;;;;;10591856;27;20072;-77
2023/04/05 03:07:24;;;;;;;49.03;23.73;;;;;;;;;;10593650;27;20110;-75
2023/04/05 03:12:25;;;;;;;51.93;22.63;;;;;;;;;;10599603;27;20046;-76
2023/04/05 03:17:26;;;;;;;48.23;21.37;;;;;;;;;;10537723;22;20064;-77
2023/04/05 03:22:27;;;;;;;55.13;25.17;;;;;;;;;;10488228;28;20090;-77
2023/04/05 03:27:28;;;;;;;67.60;29.10;;;;;;;;;;10489143;28;20123;-77
2023/04/05 03:32:29;;;;;;;67.43;29.80;;;;;;;;;;10487049;28;20130;-77
2023/04/05 03:37:30;;;;;;;62.97;27.73;;;;;;;;;;10487537;28;20078;-77
2023/04/05 03:42:32;;;;;;;66.70;28.40;;;;;;;;;;10488023;28;20074;-78
2023/04/05 03:47:33;;;;;;;70.93;33.33;;;;;;;;;;10486575;28;20033;-79
2023/04/05 03:52:34;;;;;;;82.70;36.90;;;;;;;;;;10477149;28;20044;-78
2023/04/05 03:57:37;;;;;;;75.40;33.97;;;;;;;;;;10482503;28;20048;-77
2023/04/05 04:02:38;;;;;;;68.30;32.63;;;;;;;;;;10501542;23;20071;-78
2023/04/05 04:07:40;;;;;;;70.57;31.63;;;;;;;;;;10518525;28;20040;-76
2023/04/05 04:12:41;;;;;;;79.63;38.93;;;;;;;;;;10529145;28;20519;-76
2023/04/05 04:17:42;;;;;;;98.37;42.70;;;;;;;;;;10569234;27;20030;-78
2023/04/05 04:22:44;;;;;;;80.40;36.33;;;;;;;;;;10603809;27;20031;-77
2023/04/05 04:27:46;;;;;;;81.73;36.43;;;;;;;;;;10570505;27;20120;-76
2023/04/05 04:32:52;;;;;;;75.50;35.57;;;;;;;;;;10587072;27;20037;-76
2023/04/05 04:38:00;;;;;;;58.17;27.80;;;;;;;;;;10612764;27;20027;-76
2023/04/05 04:43:01;;;;;;;76.53;33.27;;;;;;;;;;10612514;27;20126;-76
2023/04/05 04:48:03;;;;;;;82.23;35.43;;;;;;;;;;10611801;27;20027;-75
2023/04/05 04:53:05;;;;;;;86.50;38.30;;;;;;;;;;10612813;27;20031;-76
2023/04/05 04:58:09;;;;;;;86.87;43.20;;;;;;;;;;10611571;27;20023;-77
2023/04/05 05:03:10;;;;;;;95.00;45.67;;;;;;;;;;10611523;27;20058;-76
2023/04/05 05:08:11;;;;;;;111.60;48.20;;;;;;;;;;10611594;27;20023;-76
2023/04/05 05:13:12;;;;;;;116.87;53.83;;;;;;;;;;10599146;27;20107;-76
2023/04/05 05:18:13;;;;;;;122.13;54.43;;;;;;;;;;10611333;27;20027;-76
2023/04/05 05:23:15;;;;;;;117.73;53.87;;;;;;;;;;10611229;27;20058;-76
2023/04/05 05:28:16;;;;;;;115.93;54.70;;;;;;;;;;10611675;28;20025;-76
2023/04/05 05:33:17;;;;;;;117.87;57.37;;;;;;;;;;10612000;28;20031;-77
2023/04/05 05:38:18;;;;;;;123.00;60.20;;;;;;;;;;10611363;28;20611;-78
2023/04/05 05:43:19;;;;;;;115.00;50.57;;;;;;;;;;10615209;27;20019;-76
2023/04/05 05:48:20;;;;;;;100.27;44.63;;;;;;;;;;10619087;27;20088;-76
2023/04/05 05:53:21;;;;;;;111.90;49.50;;;;;;;;;;10618956;27;20114;-76
2023/04/05 05:58:22;;;;;;;67.63;35.43;;;;;;;;;;10618897;27;20031;-76
2023/04/05 06:03:28;;;;;;;76.90;32.73;;;;;;;;;;10574704;28;20117;-77
2023/04/05 06:08:29;;;;;;;64.00;30.95;;;;;;;;;;10576477;28;20031;-76
2023/04/05 06:13:30;;;;;;;86.70;39.93;;;;;;;;;;10575692;28;20111;-77
2023/04/05 06:18:31;;;;;;;57.53;27.20;;;;;;;;;;10576004;28;20019;-76
2023/04/05 06:23:32;;;;;;;75.03;32.67;;;;;;;;;;10575879;28;20032;-76
2023/04/05 06:28:33;;;;;;;66.70;28.53;;;;;;;;;;10575630;28;20027;-75
2023/04/05 06:33:34;;;;;;;49.23;22.60;;;;;;;;;;10576063;28;20038;-76
2023/04/05 06:38:35;;;;;;;45.90;20.67;;;;;;;;;;10575264;28;20126;-76
2023/04/05 06:43:36;;;;;;;46.17;21.37;;;;;;;;;;10574817;28;20081;-76
2023/04/05 06:48:38;;;;;;;47.77;22.77;;;;;;;;;;10574855;28;20054;-78
2023/04/05 06:53:39;;;;;;;41.40;20.70;;;;;;;;;;10574387;28;20030;-77
2023/04/05 06:58:40;;;;;;;36.37;18.87;;;;;;;;;;10563559;28;20787;-78
2023/04/05 07:03:41;;;;;;;37.23;16.93;;;;;;;;;;10574035;28;20059;-77
2023/04/05 07:08:42;;;;;;;24.37;12.60;;;;;;;;;;10574356;28;20024;-76
2023/04/05 07:13:43;;;;;;;29.83;14.13;;;;;;;;;;10573918;28;20075;-77
2023/04/05 07:18:45;;;;;;;29.63;13.57;;;;;;;;;;10573597;28;20047;-76
2023/04/05 07:23:46;;;;;;;27.97;13.60;;;;;;;;;;10573792;28;20440;-77
2023/04/05 07:28:47;;;;;;;32.37;15.07;;;;;;;;;;10573278;28;20028;-77
2023/04/05 07:33:47;;;;;;;28.10;14.43;;;;;;;;;;10563676;28;20042;-77
2023/04/05 07:38:48;;;;;;;25.33;13.17;;;;;;;;;;10569953;28;20478;-77
2023/04/05 07:43:52;;;;;;;26.50;13.90;;;;;;;;;;10560341;28;20557;-76
2023/04/05 07:48:54;;;;;;;20.80;10.10;;;;;;;;;;10546006;28;20028;-76
2023/04/05 07:53:55;;;;;;;14.60;7.63;;;;;;;;;;10572286;28;20077;-77
2023/04/05 07:58:56;;;;;;;15.63;8.50;;;;;;;;;;10571583;28;20092;-77
2023/04/05 08:03:57;;;;;;;14.40;6.47;;;;;;;;;;10572061;28;20051;-77
2023/04/05 08:08:58;;;;;;;17.27;6.80;;;;;;;;;;10571045;28;20051;-76
2023/04/05 08:13:59;;;;;;;9.70;5.40;;;;;;;;;;10544068;28;20046;-78
2023/04/05 08:19:00;;;;;;;10.83;5.50;;;;;;;;;;10571822;28;20028;-76
2023/04/05 08:24:02;;;;;;;12.07;5.00;;;;;;;;;;10571293;28;20031;-77
2023/04/05 08:29:03;;;;;;;15.33;6.83;;;;;;;;;;10557876;28;20062;-76
2023/04/05 08:34:07;;;;;;;9.27;4.00;;;;;;;;;;10548721;28;20023;-77
2023/04/05 08:39:08;;;;;;;7.57;3.63;;;;;;;;;;10557336;28;20132;-77
2023/04/05 08:44:09;;;;;;;8.97;4.80;;;;;;;;;;10570754;28;20023;-76
2023/04/05 08:49:10;;;;;;;9.30;4.93;;;;;;;;;;10565402;28;20028;-77
2023/04/05 08:54:13;;;;;;;10.30;5.50;;;;;;;;;;10542577;28;20097;-77
2023/04/05 08:59:16;;;;;;;11.77;5.33;;;;;;;;;;10542186;28;20086;-77
2023/04/05 09:04:25;;;;;;;13.07;5.60;;;;;;;;;;10547910;28;20834;-76
2023/04/05 09:09:30;;;;;;;12.90;6.13;;;;;;;;;;10544515;28;20700;-77
2023/04/05 09:14:33;;;;;;;11.27;6.27;;;;;;;;;;10559575;28;20028;-77
2023/04/05 09:19:34;;;;;;;10.83;5.93;;;;;;;;;;10549717;28;20099;-77
2023/04/05 09:24:40;;;;;;;14.37;6.90;;;;;;;;;;10567291;28;20062;-76
2023/04/05 09:29:42;;;;;;;16.48;7.70;;;;;;;;;;10565319;28;20032;-77
2023/04/05 09:34:43;;;;;;;19.30;7.23;;;;;;;;;;10557601;28;20420;-77
2023/04/05 09:39:45;;;;;;;11.47;6.23;;;;;;;;;;10566707;28;20050;-76
2023/04/05 09:45:03;;;;;;;14.43;6.10;;;;;;;;;;10540197;28;20039;-78
2023/04/05 09:50:13;;;;;;;9.53;5.03;;;;;;;;;;10562562;28;20032;-76
2023/04/05 09:55:25;;;;;;;13.40;6.50;;;;;;;;;;10550117;28;20031;-77
2023/04/05 10:00:26;;;;;;;11.93;5.57;;;;;;;;;;10552814;28;20703;-76
2023/04/05 10:05:28;;;;;;;7.97;4.87;;;;;;;;;;10537437;28;20143;-76
2023/04/05 10:10:31;;;;;;;9.73;4.83;;;;;;;;;;10541083;28;20028;-78
2023/04/05 10:15:32;;;;;;;9.27;4.17;;;;;;;;;;10542184;28;20032;-78
2023/04/05 10:20:38;;;;;;;11.07;5.83;;;;;;;;;;10546423;28;20039;-78
2023/04/05 10:26:06;;;;;;;11.63;4.30;;;;;;;;;;10565368;28;20034;-77
2023/04/05 10:31:07;;;;;;;10.30;4.47;;;;;;;;;;10528621;28;20383;-77
2023/04/05 10:36:27;;;;;;;8.97;4.17;;;;;;;;;;10544255;28;20050;-79
2023/04/05 10:41:30;;;;;;;9.97;3.90;;;;;;;;;;10545540;28;20044;-77
2023/04/05 10:46:31;;;;;;;6.40;3.93;;;;;;;;;;10545759;28;20034;-78
2023/04/05 10:51:33;;;;;;;38.70;18.30;;;;;;;;;;10557393;28;20039;-77
2023/04/05 10:56:34;;;;;;;6.97;3.43;;;;;;;;;;10571478;28;20103;-78
2023/04/05 11:01:37;;;;;;;7.83;3.70;;;;;;;;;;10535035;28;20657;-78
2023/04/05 11:06:38;;;;;;;9.73;5.13;;;;;;;;;;10548481;28;20055;-78
2023/04/05 11:11:40;;;;;;;7.97;3.77;;;;;;;;;;10569018;28;20024;-78
2023/04/05 11:16:41;;;;;;;9.83;3.43;;;;;;;;;;10547452;28;20035;-77
2023/04/05 11:21:43;;;;;;;6.67;3.30;;;;;;;;;;10557813;28;20537;-79
2023/04/05 11:26:44;;;;;;;8.00;3.67;;;;;;;;;;10552764;28;20016;-77
2023/04/05 11:32:00;;;;;;;12.30;5.27;;;;;;;;;;10547006;28;20036;-78
2023/04/05 11:37:01;;;;;;;7.33;3.67;;;;;;;;;;10571188;28;20032;-79
2023/04/05 11:42:04;;;;;;;8.10;3.50;;;;;;;;;;10550303;28;20044;-78
2023/04/05 11:47:06;;;;;;;4.40;3.00;;;;;;;;;;10540035;28;20036;-79
2023/04/05 11:52:14;;;;;;;5.10;3.23;;;;;;;;;;10541448;28;20188;-77
2023/04/05 11:57:18;;;;;;;7.20;4.00;;;;;;;;;;10532674;28;20032;-78
2023/04/05 12:02:20;;;;;;;8.80;3.37;;;;;;;;;;10569544;28;20052;-77
2023/04/05 12:07:21;;;;;;;5.70;3.33;;;;;;;;;;10561834;28;20027;-77
2023/04/05 12:12:22;;;;;;;7.80;3.43;;;;;;;;;;10554815;28;20027;-80
2023/04/05 12:17:37;;;;;;;5.00;2.63;;;;;;;;;;10540509;28;20032;-78
2023/04/05 12:22:38;;;;;;;8.53;3.60;;;;;;;;;;10527848;28;20607;-81
2023/04/05 12:27:40;;;;;;;6.43;3.27;;;;;;;;;;10527212;28;20035;-78
2023/04/05 12:32:42;;;;;;;7.13;3.40;;;;;;;;;;10526335;28;20032;-78
2023/04/05 12:37:43;;;;;;;6.40;3.23;;;;;;;;;;10523309;28;20111;-78
2023/04/05 12:42:45;;;;;;;4.43;2.87;;;;;;;;;;10525577;28;20063;-79
2023/04/05 12:47:49;;;;;;;7.37;3.57;;;;;;;;;;10525859;28;20455;-78
2023/04/05 12:52:51;;;;;;;6.70;2.80;;;;;;;;;;10530832;28;20700;-78
2023/04/05 12:57:53;;;;;;;6.03;3.10;;;;;;;;;;10545136;28;20073;-79
2023/04/05 13:02:55;;;;;;;8.80;3.43;;;;;;;;;;10525361;28;20051;-77
2023/04/05 13:07:56;;;;;;;7.80;3.13;;;;;;;;;;10525602;28;20503;-79
2023/04/05 13:12:57;;;;;;;6.57;3.43;;;;;;;;;;10527152;28;20027;-80
2023/04/05 13:17:59;;;;;;;6.87;3.30;;;;;;;;;;10506791;28;20054;-78
2023/04/05 13:23:00;;;;;;;7.87;3.33;;;;;;;;;;10521575;28;20031;-78
2023/04/05 13:28:01;;;;;;;5.53;3.23;;;;;;;;;;10534325;28;20027;-80
2023/04/05 13:33:03;;;;;;;7.37;3.47;;;;;;;;;;10567713;28;20046;-77
2023/04/05 13:38:04;;;;;;;15.93;9.20;;;;;;;;;;10555181;28;20038;-78
2023/04/05 13:43:05;;;;;;;6.13;3.40;;;;;;;;;;10551165;28;20066;-80
2023/04/05 13:48:06;;;;;;;5.03;3.03;;;;;;;;;;10540731;28;20034;-78
2023/04/05 13:53:07;;;;;;;4.60;2.63;;;;;;;;;;10564537;28;20061;-78
2023/04/05 13:58:08;;;;;;;7.07;3.20;;;;;;;;;;10539797;28;20380;-79
2023/04/05 14:03:09;;;;;;;8.90;3.37;;;;;;;;;;10532806;28;20107;-79
2023/04/05 14:08:10;;;;;;;14.00;3.90;;;;;;;;;;10536703;28;20768;-78
2023/04/05 14:13:14;;;;;;;5.20;2.93;;;;;;;;;;10533164;28;20036;-78
2023/04/05 14:18:16;;;;;;;5.30;3.03;;;;;;;;;;10514522;28;20127;-79
2023/04/05 14:23:17;;;;;;;8.63;3.47;;;;;;;;;;10545442;28;20062;-77
2023/04/05 14:28:18;;;;;;;5.57;3.17;;;;;;;;;;10540547;28;20034;-78
2023/04/05 14:33:19;;;;;;;8.23;3.57;;;;;;;;;;10526912;28;20027;-78
2023/04/05 14:38:20;;;;;;;7.13;2.73;;;;;;;;;;10529630;28;20039;-79
2023/04/05 14:43:21;;;;;;;7.27;3.30;;;;;;;;;;10521454;28;20041;-79
2023/04/05 14:48:22;;;;;;;9.93;3.80;;;;;;;;;;10529860;28;20028;-78
2023/04/05 14:53:23;;;;;;;5.67;2.97;;;;;;;;;;10531183;28;20059;-78
2023/04/05 14:58:24;;;;;;;7.33;3.50;;;;;;;;;;10536529;28;20040;-79
2023/04/05 15:03:25;;;;;;;7.17;3.60;;;;;;;;;;10533097;28;20055;-78
2023/04/05 15:08:26;;;;;;;8.90;3.80;;;;;;;;;;10539809;28;20478;-78
2023/04/05 15:13:27;;;;;;;6.10;3.20;;;;;;;;;;10546738;28;20032;-78
2023/04/05 15:18:28;;;;;;;7.27;3.57;;;;;;;;;;10553781;28;20498;-79
2023/04/05 15:23:30;;;;;;;6.70;3.50;;;;;;;;;;10548639;28;20037;-77
2023/04/05 15:28:31;;;;;;;13.47;3.90;;;;;;;;;;10560218;28;20546;-79
2023/04/05 15:33:32;;;;;;;11.50;4.57;;;;;;;;;;10560051;28;20077;-78
2023/04/05 15:38:33;;;;;;;10.20;4.60;;;;;;;;;;10539122;28;20048;-79
2023/04/05 15:43:35;;;;;;;12.43;5.03;;;;;;;;;;10527726;28;20494;-76
2023/04/05 15:48:36;;;;;;;9.00;4.57;;;;;;;;;;10552395;28;20057;-79
2023/04/05 15:53:37;;;;;;;9.80;3.93;;;;;;;;;;10534363;28;20042;-75
2023/04/05 15:58:38;;;;;;;12.73;5.00;;;;;;;;;;10527857;28;20052;-75
2023/04/05 16:03:39;;;;;;;8.70;4.47;;;;;;;;;;10574814;22;20275;-78
2023/04/05 16:08:40;;;;;;;16.30;5.77;;;;;;;;;;10574441;27;20043;-75
2023/04/05 16:13:41;;;;;;;12.30;5.87;;;;;;;;;;10581716;27;20156;-75
2023/04/05 16:18:42;;;;;;;12.40;6.17;;;;;;;;;;10613830;27;20031;-76
2023/04/05 16:23:45;;;;;;;14.10;5.77;;;;;;;;;;10629292;27;20030;-76
2023/04/05 16:28:46;;;;;;;12.70;6.17;;;;;;;;;;10620275;27;20025;-77
2023/04/05 16:33:48;;;;;;;15.20;5.87;;;;;;;;;;10614534;27;20035;-76
2023/04/05 16:38:50;;;;;;;10.00;4.97;;;;;;;;;;10620567;27;20702;-76
2023/04/05 16:43:51;;;;;;;10.87;5.10;;;;;;;;;;10614378;27;20027;-75
2023/04/05 16:48:53;;;;;;;14.20;6.53;;;;;;;;;;10596174;27;20120;-76
2023/04/05 16:53:54;;;;;;;15.90;6.63;;;;;;;;;;10578118;27;20023;-77
2023/04/05 16:58:56;;;;;;;14.53;6.90;;;;;;;;;;10621068;27;20035;-76
2023/04/05 17:03:58;;;;;;;16.87;7.40;;;;;;;;;;10624041;27;20027;-77
2023/04/05 17:08:59;;;;;;;11.57;5.60;;;;;;;;;;10619779;27;20059;-76
2023/04/05 17:14:01;;;;;;;12.47;5.47;;;;;;;;;;10635825;27;20038;-76
2023/04/05 17:19:02;;;;;;;12.07;5.47;;;;;;;;;;10617706;27;20030;-77
2023/04/05 17:24:03;;;;;;;11.90;5.03;;;;;;;;;;10612944;27;20032;-77
2023/04/05 17:29:04;;;;;;;12.03;5.57;;;;;;;;;;10612337;27;20020;-78
2023/04/05 17:34:05;;;;;;;16.70;6.23;;;;;;;;;;10616719;27;20023;-78
2023/04/05 17:39:06;;;;;;;13.23;5.60;;;;;;;;;;10621829;27;20570;-78
2023/04/05 17:44:07;;;;;;;10.57;5.13;;;;;;;;;;10613566;27;20160;-76
2023/04/05 17:49:08;;;;;;;16.60;5.43;;;;;;;;;;10616239;27;20034;-78
2023/04/05 17:54:11;;;;;;;15.30;6.03;;;;;;;;;;10629558;27;20099;-76
2023/04/05 17:59:12;;;;;;;23.40;7.63;;;;;;;;;;10619194;27;20030;-77
2023/04/05 18:04:13;;;;;;;17.53;7.17;;;;;;;;;;10615294;27;20040;-76
2023/04/05 18:09:14;;;;;;;16.40;7.17;;;;;;;;;;10623669;27;20039;-77
2023/04/05 18:14:15;;;;;;;18.23;8.00;;;;;;;;;;10617058;27;20375;-76
2023/04/05 18:19:16;;;;;;;17.90;7.57;;;;;;;;;;10627355;27;20039;-76
2023/04/05 18:24:18;;;;;;;17.50;7.40;;;;;;;;;;10621320;27;20027;-77
2023/04/05 18:29:21;;;;;;;19.10;8.40;;;;;;;;;;10631430;27;20046;-77
2023/04/05 18:34:25;;;;;;;19.13;8.60;;;;;;;;;;10627626;27;20030;-77
2023/04/05 18:39:26;;;;;;;24.40;10.43;;;;;;;;;;10622355;27;20160;-77
2023/04/05 18:44:27;;;;;;;26.30;11.13;;;;;;;;;;10615074;27;20019;-76
2023/04/05 18:49:28;;;;;;;25.67;10.63;;;;;;;;;;10621860;27;20038;-76
2023/04/05 18:54:29;;;;;;;27.67;11.23;;;;;;;;;;10607139;27;20038;-76
2023/04/05 18:59:30;;;;;;;31.47;11.27;;;;;;;;;;10627013;27;20019;-75
2023/04/05 19:04:31;;;;;;;31.90;12.20;;;;;;;;;;10606789;27;20067;-76
2023/04/05 19:09:33;;;;;;;33.80;13.70;;;;;;;;;;10606993;27;20039;-76
2023/04/05 19:14:34;;;;;;;43.77;17.07;;;;;;;;;;10606834;27;20023;-76
2023/04/05 19:19:35;;;;;;;43.00;17.10;;;;;;;;;;10610524;27;20038;-76
2023/04/05 19:24:39;;;;;;;69.07;26.70;;;;;;;;;;10629202;27;20027;-77
2023/04/05 19:29:40;;;;;;;86.47;34.43;;;;;;;;;;10610903;27;20043;-76
2023/04/05 19:34:41;;;;;;;90.50;34.07;;;;;;;;;;10614892;27;20027;-77
2023/04/05 19:39:42;;;;;;;94.60;34.23;;;;;;;;;;10606472;27;20046;-75
2023/04/05 19:44:43;;;;;;;90.10;35.40;;;;;;;;;;10625417;27;20065;-74
2023/04/05 19:49:45;;;;;;;90.57;32.70;;;;;;;;;;10615543;27;20026;-75
2023/04/05 19:54:46;;;;;;;85.43;33.77;;;;;;;;;;10611321;27;20031;-77
2023/04/05 19:59:47;;;;;;;74.83;30.00;;;;;;;;;;10625954;27;20047;-76
2023/04/05 20:04:48;;;;;;;89.30;32.37;;;;;;;;;;10598838;27;20502;-76
2023/04/05 20:09:49;;;;;;;78.10;29.20;;;;;;;;;;10622892;27;20031;-75
2023/04/05 20:14:50;;;;;;;69.17;26.67;;;;;;;;;;10623606;27;20043;-76
2023/04/05 20:19:57;;;;;;;64.83;26.07;;;;;;;;;;10613773;27;20624;-75
2023/04/05 20:24:58;;;;;;;64.23;25.53;;;;;;;;;;10612682;27;20061;-76
2023/04/05 20:29:59;;;;;;;67.80;25.50;;;;;;;;;;10611568;27;20031;-76
2023/04/05 20:35:00;;;;;;;69.70;27.57;;;;;;;;;;10628298;27;20065;-77
2023/04/05 20:40:01;;;;;;;62.80;26.13;;;;;;;;;;10635250;27;20042;-76
2023/04/05 20:45:03;;;;;;;68.37;27.10;;;;;;;;;;10654711;27;20398;-76
2023/04/05 20:50:04;;;;;;;59.37;23.80;;;;;;;;;;10642234;27;20079;-76
2023/04/05 20:55:05;;;;;;;62.77;24.93;;;;;;;;;;10648721;27;20031;-76
2023/04/05 21:00:07;;;;;;;66.67;24.40;;;;;;;;;;10634230;27;20157;-75
2023/04/05 21:05:08;;;;;;;65.90;24.40;;;;;;;;;;10632766;27;20049;-78
2023/04/05 21:10:09;;;;;;;67.90;27.20;;;;;;;;;;10619631;27;20419;-77
2023/04/05 21:15:10;;;;;;;67.93;27.53;;;;;;;;;;10628140;27;20113;-77
2023/04/05 21:20:11;;;;;;;65.53;24.53;;;;;;;;;;10632799;27;20039;-75
2023/04/05 21:25:12;;;;;;;62.53;25.87;;;;;;;;;;10623757;27;20509;-74
2023/04/05 21:30:14;;;;;;;69.07;26.33;;;;;;;;;;10624086;27;20038;-76
2023/04/05 21:35:15;;;;;;;67.93;28.30;;;;;;;;;;10626122;27;20572;-78
2023/04/05 21:40:16;;;;;;;67.90;27.77;;;;;;;;;;10616904;27;20031;-76
2023/04/05 21:45:17;;;;;;;75.53;30.90;;;;;;;;;;10618861;27;20039;-76
2023/04/05 21:50:18;;;;;;;64.47;29.97;;;;;;;;;;10625200;27;20450;-76
2023/04/05 21:55:19;;;;;;;74.20;31.07;;;;;;;;;;10618234;27;20087;-75
2023/04/05 22:00:20;;;;;;;71.97;29.93;;;;;;;;;;10637774;27;20645;-76
2023/04/05 22:05:21;;;;;;;79.93;31.47;;;;;;;;;;10625875;27;20051;-76
2023/04/05 22:10:23;;;;;;;74.80;31.33;;;;;;;;;;10621847;27;20474;-76
2023/04/05 22:15:24;;;;;;;76.97;33.07;;;;;;;;;;10630757;27;20687;-76
2023/04/05 22:20:25;;;;;;;76.30;31.93;;;;;;;;;;10618752;27;20041;-75
2023/04/05 22:25:26;;;;;;;81.53;32.53;;;;;;;;;;10620305;27;20038;-75
2023/04/05 22:30:28;;;;;;;78.47;33.13;;;;;;;;;;10639400;27;20042;-75
2023/04/05 22:35:29;;;;;;;75.53;31.63;;;;;;;;;;10633748;27;20027;-77
2023/04/05 22:40:30;;;;;;;70.47;29.53;;;;;;;;;;10617529;27;20578;-76
2023/04/05 22:45:31;;;;;;;68.33;31.30;;;;;;;;;;10622713;27;20655;-75
2023/04/05 22:50:32;;;;;;;70.83;30.30;;;;;;;;;;10628105;27;20050;-76
2023/04/05 22:55:33;;;;;;;66.83;27.70;;;;;;;;;;10619453;27;20031;-76
2023/04/05 23:00:35;;;;;;;67.63;28.57;;;;;;;;;;10633572;27;20039;-75
2023/04/05 23:05:37;;;;;;;67.97;28.90;;;;;;;;;;10626896;27;20031;-76
2023/04/05 23:10:38;;;;;;;72.37;27.47;;;;;;;;;;10623633;27;20042;-76
2023/04/05 23:15:39;;;;;;;69.07;28.00;;;;;;;;;;10620210;27;20595;-76
2023/04/05 23:20:40;;;;;;;61.87;25.83;;;;;;;;;;10631096;27;20123;-76
2023/04/05 23:25:41;;;;;;;60.13;25.50;;;;;;;;;;10623415;27;20045;-77
2023/04/05 23:30:42;;;;;;;57.07;25.37;;;;;;;;;;10633241;27;20043;-75
2023/04/05 23:35:43;;;;;;;52.60;24.33;;;;;;;;;;10631764;27;20031;-76
2023/04/05 23:40:44;;;;;;;64.57;26.37;;;;;;;;;;10643777;27;20051;-78
2023/04/05 23:45:45;;;;;;;63.10;25.33;;;;;;;;;;10613044;27;20038;-75
2023/04/05 23:50:47;;;;;;;63.20;25.97;;;;;;;;;;10614660;27;20038;-77
2023/04/05 23:55:51;;;;;;;55.23;23.50;;;;;;;;;;10629771;27;20517;-76
